Date,TemperatureHighF,TemperatureAvgF,TemperatureLowF,DewpointHighF,DewpointAvgF,DewpointLowF,HumidityHigh,HumidityAvg,HumidityLow,PressureMaxIn,PressureMinIn,WindSpeedMaxMPH,WindSpeedAvgMPH,GustSpeedMaxMPH,PrecipitationSumIn
2013-4-1,81.3,66.1,54.6,65.0,56.8,52.0,91,75,43,30.09,29.96,4,0,7,0.00
2013-4-2,77.7,64.3,55.1,65.0,58.7,52.0,90,83,56,30.06,29.92,0,0,7,0.53
2013-4-3,62.8,50.8,45.5,60.0,47.7,43.0,90,89,87,30.10,29.84,8,1,22,0.70
2013-4-4,49.2,46.8,44.0,44.0,42.7,41.0,91,85,78,30.16,30.04,8,2,13,0.00
2013-4-5,73.3,56.3,40.4,53.0,45.1,38.0,91,70,39,30.24,30.09,3,0,6,0.00
2013-4-6,77.2,63.1,45.1,57.0,52.3,42.0,90,71,46,30.11,29.94,4,0,11,0.00
2013-4-7,80.3,69.8,58.8,62.0,59.2,56.0,90,70,52,30.01,29.85,4,0,8,0.00
2013-4-8,82.0,71.9,65.4,66.0,63.0,61.0,89,75,55,29.90,29.79,5,1,10,0.00
2013-4-9,85.1,73.6,67.1,70.0,66.4,63.0,87,79,54,29.84,29.75,9,1,13,0.00
2013-4-10,80.1,67.4,46.3,72.0,62.8,44.0,90,85,73,29.89,29.72,6,1,16,0.75
2013-4-11,67.9,50.7,41.3,52.0,43.2,39.0,91,78,39,29.91,29.78,7,2,17,0.43
2013-4-12,77.8,55.3,41.0,55.0,44.9,38.0,90,73,29,30.03,29.88,2,0,7,0.00
2013-4-13,81.6,64.1,45.5,57.0,49.6,42.0,90,65,26,30.02,29.82,2,0,8,0.00
2013-4-14,83.8,65.8,50.7,65.0,57.1,48.0,90,76,46,29.82,29.65,4,0,6,0.00
2013-4-15,87.9,75.2,65.2,72.0,66.8,62.0,89,76,53,29.87,29.74,6,0,9,0.00
2013-4-16,86.3,76.6,71.2,74.0,70.2,68.0,89,81,60,29.98,29.85,5,0,10,0.01
2013-4-17,85.5,76.7,71.2,73.0,70.6,68.0,89,81,64,29.98,29.79,8,1,14,0.02
2013-4-18,77.8,64.7,48.6,71.0,60.1,45.0,89,85,78,30.07,29.71,14,2,18,0.67
2013-4-19,62.6,50.3,40.2,45.0,36.0,30.0,89,62,33,30.23,30.07,18,3,19,0.00
2013-4-20,73.3,54.6,36.5,49.0,39.7,34.0,90,64,29,30.25,30.08,8,0,10,0.00
2013-4-21,76.0,58.8,42.9,52.0,46.2,40.0,89,68,35,30.21,30.09,2,0,9,0.00
2013-4-22,80.8,63.0,45.2,58.0,50.6,42.0,89,68,37,30.15,29.94,3,0,7,0.00
2013-4-23,82.3,70.2,59.5,67.0,62.5,56.0,88,77,57,30.03,29.89,3,0,8,0.00
2013-4-24,68.0,55.5,45.8,61.0,46.2,40.0,85,72,48,30.24,29.99,10,3,20,0.02
2013-4-25,75.1,61.6,53.0,51.0,46.7,41.0,83,61,33,30.34,30.22,6,1,10,0.00
2013-4-26,80.1,69.3,57.5,68.0,59.4,47.0,85,71,61,30.24,30.06,5,0,7,0.00
2013-4-27,85.9,72.9,66.4,70.0,66.3,63.0,89,81,55,30.13,29.96,3,0,8,0.02
2013-4-28,86.8,72.9,63.4,65.0,61.6,59.0,88,70,41,30.02,29.87,5,0,8,0.00
2013-4-29,85.5,70.0,56.3,68.0,61.6,53.0,88,76,49,29.96,29.83,4,0,7,0.00
2013-4-30,83.6,69.0,58.2,69.0,62.4,54.0,88,80,56,29.88,29.76,3,0,9,0.90